Hoppa till innehåll

METAR väder och rapporter - LTAI

Nedan listas information från vald flygplats. Andra METARs finns längre ned på sidan. Kontakta oss om någon saknas eller skriv in egen ICAO-kod.

Coded METAR: 2022/12/01 12:50 LTAI 011250Z 05004KT 9999 FEW020CB BKN030 18/14 Q1018 NOSIG

Weather Report @ LTAI

Issued: 1st Dec 2022 at 13:50 CET

Wind: light breeze from the Northeast (050 degrees) at 4 knots (5 mph, 7 kph, 2 mps, Force 2)
Visibility: 10km or more
Cloud: a few clouds at 2000 feet with cumulonimbus
Cloud: broken at 3000 feet
Temperature: 64F / 18C
Dewpoint: 57F / 14C
Humidity: 77%
Pressure: 1018 hPa
Weather: no significant change expected

Coded TAF: 2022/12/01 12:59 TAF AMD LTAI 011251Z 0112/0212 09008KT 9999 -SHRA FEW020CB BKN030 BECMG 0116/0119 36010KT PROB30 TEMPO 0116/0120 -TSRA BECMG 0200/0203 SCT030

Weather Forecast @ LTAI

Issued: 1st Dec 2022 at 13:59 CET

Valid : 1st Jan 01:00 until 01:00 CET

01:00 CET
DATA TOO OLD TO BE USEFUL !

Internet delivery of weather data is not secure or reliable enough for operational purposes.

NEVER RELY ON THE OUTPUT OF THIS SCRIPT TO MAKE DECISIONS ABOUT ANYTHING IN WHICH THE WEATHER FORECAST AND ITS INTERPRETATION COULD BE AN ISSUE OF SAFETY.

Andra intressanta METARs

Klicka på önskad rubrik nedan för att visa nuvarande väder för den platsen.

Avstånd från stationen: NO 27kmESGG - Göteborg (Landvetter)
Uppdaterad: 2022-12-01 14:20
 Vind från NO
Vind: NO 11 km/h
Temperatur: 2°C
Vindavkylning: -1°C
Daggpunkt: 0°C
Luftfuktighet: 87%
Barometer: 1032 hPa
Summering: Lätt duggregn
Moln: Övervägande molnigt
Sikt: 10 km
Molninformation: Övervägande molnigt 244 m
2022/12/01 13:20 ESGG 011320Z 04006KT 9999 -DZ BKN008 02/00 Q1032
Lätt duggregn, Övervägande molnigt
Lätt duggregn
Övervägande molnigt
  Visa detaljer för Göteborg (Landvetter)
Avstånd från stationen: N 28kmESGP - Göteborg (Säve)
Uppdaterad: 2022-12-01 14:20
 Vind från NO
Vind: NO 9 km/h
Temperatur: 3°C
Vindavkylning: 0°C
Daggpunkt: 1°C
Luftfuktighet: 87%
Barometer: 1033 hPa
Moln: Övervägande molnigt
Sikt: 10 km
Molninformation: Övervägande molnigt 366 m
2022/12/01 13:20 ESGP 011320Z 04005KT 9999 BKN012 03/01 Q1033
Övervägande molnigt
Övervägande molnigt
  Visa detaljer för Göteborg (Säve)
Avstånd från stationen: NO 419kmESSA - Stockholm (Arlanda)
Uppdaterad: 2022-12-01 14:20
 Vind från ONO
Vind: ONO 7 km/h
Temperatur: 2°C
Vindavkylning: 0°C
Daggpunkt: 1°C
Luftfuktighet: 93%
Barometer: 1035 hPa
Summering: Lätt regn, Nearby fog
Moln: Övervägande molnigt
Sikt: 6 km
Molninformation: Några få moln 213 m
Övervägande molnigt 549 m
Övervägande molnigt 1311 m
2022/12/01 13:20 ESSA 011320Z 06004KT 6000 -RA VCFG FEW007 BKN018 BKN043 02/01 Q1035 TEMPO 4000 DZ BKN010
Lätt regn, Nearby fog, Övervägande molnigt
Lätt regn
Nearby fog
Övervägande molnigt
  Visa detaljer för Stockholm (Arlanda)
Avstånd från stationen: ONO 404kmESSB - Stockholm (Bromma)
Uppdaterad: 2022-12-01 14:20
 Vind från O
Vind: O 7 km/h
Temperatur: 3°C
Vindavkylning: 1°C
Daggpunkt: 2°C
Luftfuktighet: 93%
Barometer: 1035 hPa
Summering: Lätt regn
Moln: Övervägande molnigt
Sikt: 10 km
Molninformation: Delvis molnigt 335 m
Övervägande molnigt 792 m
2022/12/01 13:20 ESSB 011320Z 08004KT 9999 -RA SCT011 BKN026 03/02 Q1035
Lätt regn, Övervägande molnigt
Lätt regn
Övervägande molnigt
  Visa detaljer för Stockholm (Bromma)
Avstånd från stationen: ONO 323kmESKN - Stockholm (Skavsta)
Uppdaterad: 2022-12-01 14:20
 Vind från NO
Vind: NO 7 km/h
Temperatur: 2°C
Vindavkylning: 0°C
Daggpunkt: 2°C
Luftfuktighet: 100%
Barometer: 1034 hPa
Summering: Regn
Moln: Övervägande molnigt
Sikt: 6 km
Molninformation: Övervägande molnigt 671 m
2022/12/01 13:20 ESKN 011320Z 04004KT 6000 RA BKN022 02/02 Q1034
Regn, Övervägande molnigt
Regn
Övervägande molnigt
  Visa detaljer för Stockholm (Skavsta)
Avstånd från stationen: SSO 238kmESMS - Malmö flygplats (Sturup)
Uppdaterad: 2022-12-01 14:20
 Vind från NO
Vind: NO 7 km/h
Temperatur: 3°C
Vindavkylning: 1°C
Daggpunkt: 3°C
Luftfuktighet: 100%
Barometer: 1030 hPa
Summering: Dimmigt
Moln: Genommulet
Sikt: 5 km
Molninformation: Några få moln 183 m
Genommulet 549 m
2022/12/01 13:20 ESMS 011320Z 05004KT 5000 BR FEW006 OVC018 03/03 Q1030
Dimmigt, Genommulet
Dimmigt
Genommulet
  Visa detaljer för Malmö flygplats (Sturup)
Avstånd från stationen: O 382kmESSV - Visby flygplats
Uppdaterad: 2022-12-01 14:20
 Vind från O
Vind: O 9 km/h
Temperatur: 3°C
Vindavkylning: 0°C
Daggpunkt: 2°C
Luftfuktighet: 93%
Barometer: 1033 hPa
Summering: Klart
Sikt: mer än 10 km
2022/12/01 13:20 ESSV 011320Z 09005KT CAVOK 03/02 Q1033
Klart
Klart
  Visa detaljer för Visby flygplats
Avstånd från stationen: NNO 92kmESGT - Trollhättan
Uppdaterad: 2022-12-01 14:20
 Vind från NO
Vind: NO 9 km/h
Temperatur: 3°C
Vindavkylning: 0°C
Daggpunkt: 1°C
Luftfuktighet: 87%
Barometer: 1033 hPa
Moln: Övervägande molnigt
Sikt: 10 km
Molninformation: Delvis molnigt 396 m
Delvis molnigt 792 m
Övervägande molnigt 1676 m
2022/12/01 13:20 ESGT 011320Z 04005KT 010V070 9999 SCT013 SCT026 BKN055 03/01 Q1033
Övervägande molnigt
Övervägande molnigt
  Visa detaljer för Trollhättan
Avstånd från stationen: ONO 129kmESGJ - Jönköpings flygplats
Uppdaterad: 2022-12-01 14:20
 Vind från ONO
Vind: ONO 6 km/h
Temperatur: 2°C
Daggpunkt: 2°C
Luftfuktighet: 100%
Barometer: 1032 hPa
Moln: Övervägande molnigt
Sikt: 10 km
Molninformation: Övervägande molnigt 183 m
2022/12/01 13:20 ESGJ 011320Z 06003KT 9999 BKN006 02/02 Q1032
Övervägande molnigt
Övervägande molnigt
  Visa detaljer för Jönköpings flygplats
Avstånd från stationen: NNO 229kmESOK - Karlstad
Uppdaterad: 2022-12-01 14:20
 Vind från N
Vind: N 9 km/h
Temperatur: 1°C
Vindavkylning: -2°C
Daggpunkt: 1°C
Luftfuktighet: 100%
Barometer: 1034 hPa
Moln: Genommulet
Sikt: 10 km
Molninformation: Övervägande molnigt 183 m
Genommulet 701 m
2022/12/01 13:20 ESOK 011320Z 35005KT 9999 BKN006 OVC023 01/01 Q1034
Genommulet
Genommulet
  Visa detaljer för Karlstad
Avstånd från stationen: N 643kmESNZ - Östersund (Frösön)
Uppdaterad: 2022-12-01 14:20
 Vind från varierande
Vind: varierande 2 km/h
Temperatur: -3°C
Daggpunkt: -3°C
Luftfuktighet: 100%
Barometer: 1035 hPa
Moln: Genommulet
Sikt: 10 km
Molninformation: Genommulet 91 m
2022/12/01 13:20 ESNZ 011320Z AUTO VRB01KT 9999 OVC003/// M03/M03 Q1035
Genommulet
Genommulet
  Visa detaljer för Östersund (Frösön)
Avstånd från stationen: SSO 216kmEKCH - Köpenhamn (Kastrup)
Uppdaterad: 2022-12-01 14:20
 Vind från ONO
Vind: ONO 13 km/h
Temperatur: 5°C
Vindavkylning: 2°C
Daggpunkt: 3°C
Luftfuktighet: 87%
Barometer: 1031 hPa
Moln: Genommulet
Sikt: 10 km
Molninformation: Genommulet 853 m
2022/12/01 13:20 EKCH 011320Z AUTO 06007KT 9999 OVC028/// 05/03 Q1031 NOSIG
Genommulet
Genommulet
  Visa detaljer för Köpenhamn (Kastrup)
Avstånd från stationen: SV 263kmEKBI - Billund Airport
Uppdaterad: 2022-12-01 14:20
 Vind från NO
Vind: NO 15 km/h
Temperatur: 4°C
Vindavkylning: 1°C
Daggpunkt: 2°C
Luftfuktighet: 87%
Barometer: 1030 hPa
Moln: Genommulet
Sikt: 10 km
Molninformation: Några få moln 549 m
Delvis molnigt 610 m
Övervägande molnigt 1006 m
Genommulet 2225 m
2022/12/01 13:20 EKBI 011320Z AUTO 04008KT 9999 FEW018/// SCT020/// BKN033/// OVC073/// 04/02 Q1030
Genommulet
Genommulet
  Visa detaljer för Billund Airport
Avstånd från stationen: N 302kmENGM - Oslo (Gardermoen)
Uppdaterad: 2022-12-01 14:20
 Vind från N
Vind: N 9 km/h
Temperatur: -1°C
Vindavkylning: -4°C
Daggpunkt: -3°C
Luftfuktighet: 86%
Barometer: 1035 hPa
Summering: Light Snow
Moln: Övervägande molnigt
Sikt: 10 km
Molninformation: Övervägande molnigt 274 m
2022/12/01 13:20 ENGM 011320Z 01005KT 9999 -SN BKN009 M01/M03 Q1035 TEMPO BKN012
Light snow, Övervägande molnigt
Light snow
Övervägande molnigt
  Visa detaljer för Oslo (Gardermoen)
Avstånd från stationen: NO 540kmEFMA - Mariehamn / Åland
Uppdaterad: 2022-12-01 14:20
 Vind från O
Vind: O 7 km/h
Temperatur: 3°C
Vindavkylning: 1°C
Daggpunkt: 0°C
Luftfuktighet: 81%
Barometer: 1037 hPa
Moln: Övervägande molnigt
Sikt: 10 km
Molninformation: Övervägande molnigt 549 m
2022/12/01 13:20 EFMA 011320Z AUTO 10004KT 080V150 9999 BKN018 03/00 Q1037
Övervägande molnigt
Övervägande molnigt
  Visa detaljer för Mariehamn / Åland
Avstånd från stationen: S 558kmEDDT - Berlin (Tegel), Germany
Uppdaterad: 2020-11-09 07:50
Ej aktuell
 Vind från O
Vind: O 11 km/h
Temperatur: 6°C
Vindavkylning: 4°C
Daggpunkt: 5°C
Luftfuktighet: 93%
Barometer: 1027 hPa
Summering: Dimmigt
Moln: Genommulet
Sikt: 3 km
Molninformation: Genommulet 91 m
2020/11/09 06:50 EDDT 090650Z 09006KT 050V120 3000 BR OVC003 06/05 Q1027
Dimmigt, Genommulet
Dimmigt
Genommulet
  Visa detaljer för Berlin (Tegel), Germany
Avstånd från stationen: SV 737kmEHAM - Amsterdam (Schiphol)
Uppdaterad: 2022-12-01 14:25
 Vind från NO
Vind: NO 13 km/h
Temperatur: 7°C
Vindavkylning: 5°C
Daggpunkt: 3°C
Luftfuktighet: 76%
Barometer: 1028 hPa
Moln: Några få moln
Sikt: 10 km
Molninformation: Några få moln 732 m
2022/12/01 13:25 EHAM 011325Z 04007KT 360V070 9999 FEW024 07/03 Q1028 NOSIG
Några få moln
Några få moln
  Visa detaljer för Amsterdam (Schiphol)
Avstånd från stationen: ONO 808kmEFHK - Helsingfors (Vantaa)
Uppdaterad: 2022-12-01 14:20
 Vind från ONO
Vind: ONO 13 km/h
Temperatur: -1°C
Vindavkylning: -6°C
Daggpunkt: -2°C
Luftfuktighet: 93%
Barometer: 1038 hPa
Moln: Övervägande molnigt
Sikt: 10 km
Molninformation: Några få moln 213 m
Övervägande molnigt 335 m
2022/12/01 13:20 EFHK 011320Z 06007KT 9999 FEW007 BKN011 M01/M02 Q1038 NOSIG
Övervägande molnigt
Övervägande molnigt
  Visa detaljer för Helsingfors (Vantaa)
Avstånd från stationen: SSV 537kmEDDW - Bremen
Uppdaterad: 2022-12-01 14:20
 Vind från ONO
Vind: ONO 13 km/h
Temperatur: 4°C
Vindavkylning: 1°C
Daggpunkt: 2°C
Luftfuktighet: 87%
Barometer: 1028 hPa
Moln: Genommulet
Sikt: 9 km
Molninformation: Genommulet 457 m
2022/12/01 13:20 EDDW 011320Z AUTO 06007KT 9000 OVC015 04/02 Q1028 TEMPO OVC008
Genommulet
Genommulet
  Visa detaljer för Bremen
Avstånd från stationen: SSV 861kmEDDF - Frankfurt am Main
Uppdaterad: 2022-12-01 14:20
 Vind från NNO
Vind: NNO 15 km/h
Temperatur: 6°C
Vindavkylning: 3°C
Daggpunkt: 2°C
Luftfuktighet: 76%
Barometer: 1024 hPa
Moln: Övervägande molnigt
Sikt: 10 km
Molninformation: Delvis molnigt 518 m
Övervägande molnigt 732 m
Övervägande molnigt 945 m
2022/12/01 13:20 EDDF 011320Z AUTO 02008KT 9999 SCT017 BKN024 BKN031 06/02 Q1024 NOSIG
Övervägande molnigt
Övervägande molnigt
  Visa detaljer för Frankfurt am Main
Avstånd från stationen: SV 880kmEBBR - Bryssel international
Uppdaterad: 2022-12-01 14:20
 Vind från NNO
Vind: NNO 9 km/h
Temperatur: 6°C
Vindavkylning: 4°C
Daggpunkt: 3°C
Luftfuktighet: 81%
Barometer: 1026 hPa
Moln: Övervägande molnigt
Sikt: 10 km
Molninformation: Några få moln 366 m
Övervägande molnigt 640 m
2022/12/01 13:20 EBBR 011320Z 02005KT 9999 FEW012 BKN021 06/03 Q1026 NOSIG
Övervägande molnigt
Övervägande molnigt
  Visa detaljer för Bryssel international
Avstånd från stationen: SV 738kmEHAM - Amsterdam (Schiphol)
Uppdaterad: 2022-12-01 14:25
 Vind från NO
Vind: NO 13 km/h
Temperatur: 7°C
Vindavkylning: 5°C
Daggpunkt: 3°C
Luftfuktighet: 76%
Barometer: 1028 hPa
Moln: Några få moln
Sikt: 10 km
Molninformation: Några få moln 732 m
2022/12/01 13:25 EHAM 011325Z 04007KT 360V070 9999 FEW024 07/03 Q1028 NOSIG
Några få moln
Några få moln
  Visa detaljer för Amsterdam (Schiphol)
Avstånd från stationen: SV 1044kmEGLL - London (Heathrow)
Uppdaterad: 2022-12-01 14:20
 Vind från V
Vind: V 7 km/h
Temperatur: 7°C
Vindavkylning: 6°C
Daggpunkt: 6°C
Luftfuktighet: 93%
Barometer: 1029 hPa
Summering: Partial Fog
Moln: Övervägande molnigt
Sikt: 3 km
Molninformation: Delvis molnigt 30 m
Övervägande molnigt 213 m
2022/12/01 13:20 EGLL 011320Z 28004KT 3000 1000S R27L/P1500N R27R/P1500N PRFG SCT001 BKN007 07/06 Q1029
Partial fog, Övervägande molnigt
Partial fog
Övervägande molnigt
  Visa detaljer för London (Heathrow)
Avstånd från stationen: SV 1132kmLFPG - Paris (Charles de Gaulle)
Uppdaterad: 2022-12-01 14:00
 Vind från N
Vind: N 22 km/h
Temperatur: 6°C
Vindavkylning: 2°C
Daggpunkt: 3°C
Luftfuktighet: 81%
Barometer: 1025 hPa
Moln: Övervägande molnigt
Sikt: 9 km
Molninformation: Övervägande molnigt 274 m
Övervägande molnigt 1463 m
2022/12/01 13:00 LFPG 011300Z 01012KT 360V100 9000 BKN009 BKN048 06/03 Q1025 TEMPO BKN012
Övervägande molnigt
Övervägande molnigt
  Visa detaljer för Paris (Charles de Gaulle)
Avstånd från stationen: SSV 1142kmLSZH - Zürich Airport
Uppdaterad: 2022-12-01 14:20
 Vind från NNO
Vind: NNO 7 km/h
Temperatur: 4°C
Vindavkylning: 2°C
Daggpunkt: 0°C
Luftfuktighet: 75%
Barometer: 1020 hPa
Moln: Övervägande molnigt
Sikt: 10 km
Molninformation: Några få moln 457 m
Övervägande molnigt 549 m
2022/12/01 13:20 LSZH 011320Z 02004KT 9999 FEW015 BKN018 04/M00 Q1020 NOSIG
Övervägande molnigt
Övervägande molnigt
  Visa detaljer för Zürich Airport
Avstånd från stationen: S 1749kmLIRF - Rome Airport (Fiumicino - Leonardo da Vinci)
Uppdaterad: 2022-12-01 14:20
 Vind från varierande
Vind: varierande 4 km/h
Temperatur: 14°C
Daggpunkt: 5°C
Luftfuktighet: 55%
Barometer: 1013 hPa
Summering: Klart
Sikt: mer än 10 km
2022/12/01 13:20 LIRF 011320Z VRB02KT CAVOK 14/05 Q1013 NOSIG
Klart
Klart
  Visa detaljer för Rome Airport (Fiumicino - Leonardo da Vinci)
Avstånd från stationen: SO 2679kmLTAI - Antalya
Uppdaterad: 2022-12-01 13:50
 Vind från NO
Vind: NO 7 km/h
Temperatur: 18°C
Daggpunkt: 14°C
Luftfuktighet: 78%
Barometer: 1018 hPa
Moln: Övervägande molnigt
Sikt: 10 km
Molninformation: Några få moln 610 m
Övervägande molnigt 914 m
2022/12/01 12:50 LTAI 011250Z 05004KT 9999 FEW020CB BKN030 18/14 Q1018 NOSIG
Övervägande molnigt
Övervägande molnigt
  Visa detaljer för Antalya
Avstånd från stationen: VSV 6074kmKJFK - New Your (JFK)
Uppdaterad: 2022-12-01 13:51
 Vind från V
Vind: V 28 km/h
Temperatur: 3°C
Vindavkylning: -3°C
Daggpunkt: -7°C
Luftfuktighet: 48%
Barometer: 1022 hPa
Moln: Några få moln
Sikt: 16 km
Molninformation: Några få moln 1676 m
2022/12/01 12:51 KJFK 011251Z 27015KT 10SM FEW055 03/M07 A3018 RMK AO2 SLP217 T00331072
Några få moln
Några få moln
  Visa detaljer för New Your (JFK)
Avstånd från stationen: VSV 8848kmKLAX - Los Angeles International Airport
Uppdaterad: 2022-12-01 13:53
 Vind från O
Vind: O 6 km/h
Temperatur: 13°C
Daggpunkt: 7°C
Luftfuktighet: 67%
Barometer: 1015.9 hPa
Moln: Genommulet
Sikt: 16 km
Molninformation: Några få moln 762 m
Genommulet 1219 m
2022/12/01 12:53 KLAX 011253Z 09003KT 10SM FEW025 OVC040 13/07 A3000 RMK AO2 SLP159 T01330067 $
Genommulet
Genommulet
  Visa detaljer för Los Angeles International Airport
Avstånd från stationen: SO 4968kmOMDB - Dubai International Airport
Uppdaterad: 2022-12-01 14:00
 Vind från varierande
Vind: varierande 13 km/h
Temperatur: 29°C
Värmeindex: 29°C
Daggpunkt: 17°C
Luftfuktighet: 48%
Barometer: 1013 hPa
Summering: Klart
Sikt: mer än 10 km
2022/12/01 13:00 OMDB 011300Z VRB07KT CAVOK 29/17 Q1013 NOSIG
Klart
Klart
  Visa detaljer för Dubai International Airport
Avstånd från stationen: OSO 8570kmRJTT - Tokyo International Airport
Uppdaterad: 2022-12-01 14:00
 Vind från NNO
Vind: NNO 11 km/h
Temperatur: 10°C
Vindavkylning: 8°C
Daggpunkt: 8°C
Luftfuktighet: 88%
Barometer: 1017 hPa
Moln: Övervägande molnigt
Sikt: 10 km
Molninformation: Några få moln 457 m
Övervägande molnigt 762 m
2022/12/01 13:00 RJTT 011300Z 02006KT 340V050 9999 FEW015 BKN025 10/08 Q1017 NOSIG
Övervägande molnigt
Övervägande molnigt
  Visa detaljer för Tokyo International Airport
Avstånd från stationen: OSO 7125kmZBAA - Peking (Beijing Capital)
Uppdaterad: 2022-12-01 14:00
 Vind från SSV
Vind: SSV 14 km/h
Temperatur: -3°C
Vindavkylning: -8°C
Daggpunkt: -18°C
Luftfuktighet: 31%
Barometer: 1032 hPa
Summering: Klart
Sikt: mer än 10 km
2022/12/01 13:00 ZBAA 011300Z 21004MPS CAVOK M03/M18 Q1032 NOSIG
Klart
Klart
  Visa detaljer för Peking (Beijing Capital)
VÄDER KURIOSA -  ExtremesThe heaviest hailstones on record, weighing up to 2.25 pounds were reported to have killed 92 people in the Gopalganj district of Bangladesh on April 14, 1986.